Time;durP1;ratioP1;P1;durP2;ratioP2;P2;SDS_P1;SDS_P2;PMS_P1;PMS_P2;Temp;Humidity;BMP_temperature;BMP_pressure;BME280_temperature;BME280_humidity;BME280_pressure;Samples;Min_cycle;Max_cycle;Signal;HPM_P1;HPM_P2
2023/02/23 00:01:35;;;;;;;56.40;22.60;;;9.10;99.90;;;;;;4880556;29;20084;-80
2023/02/23 00:04:01;;;;;;;62.70;26.00;;;9.10;99.90;;;;;;4875776;29;20045;-81
2023/02/23 00:06:28;;;;;;;61.03;23.67;;;9.10;99.90;;;;;;4880312;29;20406;-80
2023/02/23 00:08:54;;;;;;;57.15;23.30;;;9.10;99.90;;;;;;4880621;29;20041;-80
2023/02/23 00:11:21;;;;;;;64.50;24.98;;;9.10;99.90;;;;;;4880637;29;20181;-80
2023/02/23 00:13:48;;;;;;;60.40;23.38;;;9.10;99.90;;;;;;4880621;29;20053;-81
2023/02/23 00:16:23;;;;;;;65.88;24.50;;;9.10;99.90;;;;;;4880479;29;20085;-80
2023/02/23 00:18:55;;;;;;;55.22;22.85;;;9.10;99.90;;;;;;4880223;29;20049;-81
2023/02/23 00:21:31;;;;;;;62.78;24.23;;;9.10;99.90;;;;;;4880051;29;20056;-81
2023/02/23 00:24:07;;;;;;;64.97;24.70;;;9.00;99.90;;;;;;4879081;29;20111;-81
2023/02/23 00:26:35;;;;;;;69.80;25.25;;;9.00;99.90;;;;;;4879098;29;20032;-80
2023/02/23 00:29:04;;;;;;;61.88;24.95;;;8.90;99.90;;;;;;4875708;29;20119;-81
2023/02/23 00:31:30;;;;;;;55.75;23.90;;;8.90;99.90;;;;;;4879082;29;20044;-81
2023/02/23 00:34:00;;;;;;;58.60;24.02;;;8.90;99.90;;;;;;4878421;29;20033;-80
2023/02/23 00:36:28;;;;;;;62.58;24.90;;;8.90;99.90;;;;;;4879420;29;20036;-80
2023/02/23 00:38:56;;;;;;;65.88;24.63;;;8.90;99.90;;;;;;4880374;29;20037;-80
2023/02/23 00:41:27;;;;;;;;;;;8.90;99.90;;;;;;4880404;29;20367;-81
2023/02/23 00:43:53;;;;;;;66.00;23.33;;;8.80;99.90;;;;;;4878549;29;20015;-81
2023/02/23 00:46:21;;;;;;;68.07;23.52;;;8.80;99.90;;;;;;4878604;29;20041;-80
2023/02/23 00:48:48;;;;;;;;;;;8.80;99.90;;;;;;4880690;29;20044;-80
2023/02/23 00:51:14;;;;;;;60.47;22.20;;;8.80;99.90;;;;;;4880067;29;20448;-81
2023/02/23 00:53:41;;;;;;;65.03;25.42;;;8.80;99.90;;;;;;4878460;29;20055;-80
2023/02/23 00:56:08;;;;;;;62.65;25.05;;;8.80;99.90;;;;;;4879961;29;20112;-80
2023/02/23 00:58:36;;;;;;;60.53;22.50;;;8.80;99.90;;;;;;4879592;29;20072;-81
2023/02/23 01:01:04;;;;;;;64.07;21.70;;;8.80;99.90;;;;;;4878376;29;20037;-80
2023/02/23 01:03:29;;;;;;;61.03;22.73;;;8.90;99.90;;;;;;4879731;29;20048;-81
2023/02/23 01:06:04;;;;;;;60.92;22.15;;;8.90;99.90;;;;;;4879362;29;20029;-81
2023/02/23 01:08:31;;;;;;;64.03;23.75;;;8.90;99.90;;;;;;4878239;29;20078;-80
2023/02/23 01:10:57;;;;;;;59.95;23.20;;;8.90;99.90;;;;;;4878496;29;20033;-81
2023/02/23 01:13:23;;;;;;;72.15;25.00;;;8.90;99.90;;;;;;4877236;29;20490;-80
2023/02/23 01:15:51;;;;;;;67.72;26.58;;;8.80;99.90;;;;;;4878522;29;20036;-81
2023/02/23 01:18:18;;;;;;;62.53;23.47;;;8.80;99.90;;;;;;4879473;29;20089;-80
2023/02/23 01:20:44;;;;;;;66.45;23.63;;;8.80;99.90;;;;;;4879365;29;20123;-81
2023/02/23 01:23:14;;;;;;;57.10;23.08;;;8.80;99.90;;;;;;4869930;29;20041;-81
2023/02/23 01:25:43;;;;;;;61.45;23.80;;;8.80;99.90;;;;;;4879369;29;20041;-81
2023/02/23 01:28:10;;;;;;;59.35;22.67;;;8.80;99.90;;;;;;4872200;29;20102;-81
2023/02/23 01:30:37;;;;;;;53.30;20.53;;;8.90;99.90;;;;;;4860849;29;20410;-81
2023/02/23 01:33:03;;;;;;;62.78;22.38;;;8.90;99.90;;;;;;4873796;29;20330;-81
2023/02/23 01:35:29;;;;;;;62.15;24.50;;;8.90;99.90;;;;;;4879367;29;20025;-81
2023/02/23 01:37:54;;;;;;;67.10;23.73;;;8.90;99.90;;;;;;4879651;29;20037;-81
2023/02/23 01:40:27;;;;;;;54.33;21.23;;;8.90;99.90;;;;;;4879281;29;20033;-80
2023/02/23 01:43:10;;;;;;;59.00;22.83;;;8.90;99.90;;;;;;4878449;29;20028;-81
2023/02/23 01:45:39;;;;;;;63.67;22.67;;;8.90;99.90;;;;;;4871267;29;20056;-81
2023/02/23 01:48:16;;;;;;;59.58;23.10;;;8.90;99.90;;;;;;4875093;29;20112;-82
2023/02/23 01:50:49;;;;;;;60.87;23.53;;;8.90;99.90;;;;;;4883191;29;20125;-81
2023/02/23 01:53:20;;;;;;;55.08;21.85;;;8.90;99.90;;;;;;4879202;29;20281;-81
2023/02/23 01:55:54;;;;;;;58.85;21.77;;;8.90;99.90;;;;;;4872006;29;20502;-80
2023/02/23 01:58:21;;;;;;;61.92;23.80;;;9.00;99.90;;;;;;4870342;29;20029;-81
2023/02/23 02:01:01;;;;;;;66.43;23.75;;;8.90;99.90;;;;;;4872656;29;20037;-81
2023/02/23 02:03:44;;;;;;;66.05;23.77;;;8.90;99.90;;;;;;4876462;29;20088;-80
2023/02/23 02:06:14;;;;;;;66.57;22.42;;;8.90;99.90;;;;;;4881032;29;20379;-81
2023/02/23 02:08:45;;;;;;;61.33;22.48;;;8.90;99.90;;;;;;4881406;29;20558;-81
2023/02/23 02:11:35;;;;;;;65.70;23.70;;;8.80;99.90;;;;;;4874834;29;20048;-80
2023/02/23 02:14:27;;;;;;;62.47;23.30;;;8.80;99.90;;;;;;4880642;29;20405;-80
2023/02/23 02:17:01;;;;;;;65.40;24.25;;;8.80;99.90;;;;;;4879680;29;20451;-80
2023/02/23 02:19:48;;;;;;;60.17;23.55;;;8.80;99.90;;;;;;4881918;29;20021;-81
2023/02/23 02:22:37;;;;;;;63.92;23.45;;;8.80;99.90;;;;;;4867124;29;20049;-80
2023/02/23 02:25:23;;;;;;;69.93;24.23;;;8.80;99.90;;;;;;4882692;29;20389;-80
2023/02/23 02:28:28;;;;;;;66.28;24.08;;;8.90;99.90;;;;;;4882329;29;20029;-81
2023/02/23 02:31:19;;;;;;;61.40;22.83;;;8.80;99.90;;;;;;4881598;29;20029;-80
2023/02/23 02:34:10;;;;;;;71.00;25.80;;;8.90;99.90;;;;;;4879057;29;20395;-80
2023/02/23 02:36:57;;;;;;;63.83;22.75;;;8.80;99.90;;;;;;4864357;29;20108;-80
2023/02/23 02:39:45;;;;;;;62.65;22.13;;;8.80;99.90;;;;;;4866502;29;20033;-81
2023/02/23 02:42:16;;;;;;;59.83;22.55;;;8.80;99.90;;;;;;4885018;29;20036;-81
2023/02/23 02:44:49;;;;;;;58.90;21.30;;;8.80;99.90;;;;;;4877407;29;20061;-81
2023/02/23 02:47:39;;;;;;;60.65;22.83;;;8.90;99.90;;;;;;4863519;29;20033;-81
2023/02/23 02:50:30;;;;;;;64.95;22.80;;;8.90;99.90;;;;;;4881141;29;20384;-80
2023/02/23 02:53:07;;;;;;;61.45;22.85;;;8.90;99.90;;;;;;4881722;29;20029;-81
2023/02/23 02:55:36;;;;;;;59.85;23.88;;;8.90;99.90;;;;;;4873537;29;20026;-81
2023/02/23 02:58:06;;;;;;;63.88;23.35;;;8.80;99.90;;;;;;4865685;29;20033;-81
2023/02/23 04:17:35;;;;;;;60.05;23.70;;;8.60;99.90;;;;;;4904045;29;20017;-81
2023/02/23 04:20:00;;;;;;;69.47;23.80;;;8.60;99.90;;;;;;4904123;29;20073;-84
2023/02/23 04:22:26;;;;;;;77.82;24.58;;;8.60;99.90;;;;;;4893031;29;20061;-83
2023/02/23 04:24:51;;;;;;;60.35;23.23;;;8.60;99.90;;;;;;4904587;29;20025;-85
2023/02/23 04:27:19;;;;;;;72.15;24.75;;;8.60;99.90;;;;;;4904476;29;20024;-80
2023/02/23 04:29:45;;;;;;;70.45;23.33;;;8.60;99.90;;;;;;4904672;29;20028;-82
2023/02/23 04:32:16;;;;;;;78.57;25.30;;;8.50;99.90;;;;;;4904739;29;20084;-83
2023/02/23 04:34:43;;;;;;;66.65;24.00;;;8.50;99.90;;;;;;4907766;29;20013;-83
2023/02/23 04:37:09;;;;;;;66.75;24.02;;;8.50;99.90;;;;;;4902889;29;20029;-81
2023/02/23 04:39:35;;;;;;;74.35;23.90;;;8.60;99.90;;;;;;4903756;29;20048;-81
2023/02/23 04:42:01;;;;;;;69.25;23.05;;;8.50;99.90;;;;;;4901089;29;20040;-83
2023/02/23 04:44:26;;;;;;;76.00;24.38;;;8.50;99.90;;;;;;4891766;29;20025;-81
2023/02/23 04:46:52;;;;;;;76.80;24.00;;;8.40;99.90;;;;;;4893999;29;20036;-84
2023/02/23 04:49:18;;;;;;;71.57;23.95;;;8.40;99.90;;;;;;4904567;29;20040;-80
2023/02/23 04:51:43;;;;;;;70.18;24.08;;;8.40;99.90;;;;;;4903434;29;20017;-82
2023/02/23 04:54:09;;;;;;;75.82;24.45;;;8.50;99.90;;;;;;4900680;29;20041;-83
2023/02/23 04:56:35;;;;;;;69.60;23.63;;;8.50;99.90;;;;;;4898844;29;20054;-82
2023/02/23 04:59:01;;;;;;;66.72;23.10;;;8.40;99.90;;;;;;4902358;29;20056;-87
2023/02/23 05:01:27;;;;;;;67.93;22.70;;;8.40;99.90;;;;;;4901849;29;20017;-77
2023/02/23 05:03:54;;;;;;;58.65;22.45;;;8.40;99.90;;;;;;4886841;29;20030;-83
2023/02/23 05:06:19;;;;;;;76.80;26.00;;;8.30;99.90;;;;;;4887639;29;20062;-86
2023/02/23 05:08:45;;;;;;;70.47;24.40;;;8.30;99.90;;;;;;4886440;29;20037;-83
2023/02/23 05:11:11;;;;;;;72.40;25.15;;;8.30;99.90;;;;;;4861009;29;20073;-86
2023/02/23 05:13:37;;;;;;;60.28;22.30;;;8.30;99.90;;;;;;4862973;29;20473;-87
2023/02/23 05:16:03;;;;;;;81.75;23.48;;;8.30;99.90;;;;;;4854357;29;20549;-86
2023/02/23 05:18:29;;;;;;;73.63;24.88;;;8.30;99.90;;;;;;4855014;29;20034;-86
2023/02/23 05:21:06;;;;;;;74.25;23.08;;;8.30;99.90;;;;;;4859818;29;20563;-88
2023/02/23 05:23:38;;;;;;;66.53;21.27;;;8.40;99.90;;;;;;4867570;29;20491;-87
2023/02/23 05:26:08;;;;;;;69.28;22.40;;;8.40;99.90;;;;;;4867582;29;20376;-85
2023/02/23 05:28:35;;;;;;;72.53;24.13;;;8.40;99.90;;;;;;4867499;29;20084;-87
2023/02/23 05:31:02;;;;;;;65.88;22.83;;;8.40;99.90;;;;;;4864847;29;20120;-86
2023/02/23 05:33:29;;;;;;;64.15;23.17;;;8.30;99.90;;;;;;4864417;29;20514;-88
2023/02/23 05:35:54;;;;;;;74.85;22.85;;;8.30;99.90;;;;;;4863461;29;20085;-86
2023/02/23 05:38:20;;;;;;;70.47;24.65;;;8.30;99.90;;;;;;4864429;29;20510;-85
2023/02/23 05:40:46;;;;;;;58.65;22.20;;;8.40;99.90;;;;;;4863875;29;20048;-87
2023/02/23 05:43:12;;;;;;;64.88;23.05;;;8.40;99.90;;;;;;4882671;29;20044;-85
2023/02/23 05:45:43;;;;;;;67.00;22.40;;;8.40;99.90;;;;;;4883050;29;20029;-85
2023/02/23 05:48:10;;;;;;;65.75;21.85;;;8.40;99.90;;;;;;4884366;29;20489;-85
2023/02/23 05:50:36;;;;;;;64.55;22.42;;;8.40;99.90;;;;;;4882924;29;20036;-84
2023/02/23 05:53:02;;;;;;;67.93;21.23;;;8.40;99.90;;;;;;4883407;29;20036;-84
2023/02/23 05:55:28;;;;;;;62.47;21.80;;;8.30;99.90;;;;;;4883358;29;20033;-85
2023/02/23 05:57:54;;;;;;;57.72;19.58;;;8.40;99.90;;;;;;4882649;29;20071;-85
2023/02/23 06:00:20;;;;;;;64.72;22.27;;;8.40;99.90;;;;;;4883040;29;20029;-85
2023/02/23 06:02:47;;;;;;;61.78;22.00;;;8.40;99.90;;;;;;4881961;29;20053;-86
2023/02/23 06:05:12;;;;;;;56.10;19.77;;;8.40;99.90;;;;;;4874380;29;20021;-85
2023/02/23 06:07:40;;;;;;;62.38;20.88;;;8.40;99.90;;;;;;4864537;29;20037;-83
2023/02/23 06:10:07;;;;;;;59.88;20.88;;;8.40;99.90;;;;;;4879826;29;20478;-82
2023/02/23 06:12:32;;;;;;;53.97;20.02;;;8.40;99.90;;;;;;4877536;29;20032;-84
2023/02/23 06:14:58;;;;;;;57.42;20.80;;;8.40;99.90;;;;;;4864207;29;20034;-84
2023/02/23 06:17:24;;;;;;;64.75;20.60;;;8.40;99.90;;;;;;4864179;29;20593;-84
2023/02/23 06:19:50;;;;;;;60.42;20.38;;;8.40;99.90;;;;;;4877932;29;20112;-84
2023/02/23 06:22:17;;;;;;;64.55;20.70;;;8.30;99.90;;;;;;4877078;29;20124;-84
2023/02/23 06:24:43;;;;;;;64.57;23.23;;;8.30;99.90;;;;;;4882067;29;20025;-84
2023/02/23 06:27:09;;;;;;;65.72;22.23;;;8.40;99.90;;;;;;4881906;29;20025;-84
2023/02/23 06:29:36;;;;;;;70.93;20.55;;;8.30;99.90;;;;;;4881247;29;20017;-83
2023/02/23 06:32:02;;;;;;;63.38;20.17;;;8.40;99.90;;;;;;4882449;29;20025;-84
2023/02/23 06:34:28;;;;;;;64.53;20.83;;;8.30;99.90;;;;;;4880683;29;20044;-83
2023/02/23 06:36:54;;;;;;;68.60;20.73;;;8.30;99.90;;;;;;4869874;29;20022;-84
2023/02/23 06:39:19;;;;;;;61.35;20.95;;;8.30;99.90;;;;;;4882218;29;20443;-84
2023/02/23 06:41:45;;;;;;;60.85;20.40;;;8.30;99.90;;;;;;4881245;29;20470;-82
2023/02/23 06:44:10;;;;;;;61.42;20.27;;;8.40;99.90;;;;;;4881309;29;20037;-82
2023/02/23 06:46:36;;;;;;;65.72;20.42;;;8.40;99.90;;;;;;4882252;29;20111;-83
2023/02/23 06:49:03;;;;;;;67.95;21.35;;;8.30;99.90;;;;;;4881012;29;20533;-83
2023/02/23 06:51:28;;;;;;;62.85;22.35;;;8.30;99.90;;;;;;4880779;29;20136;-83
2023/02/23 06:53:54;;;;;;;65.47;22.20;;;8.20;99.90;;;;;;4876669;29;20100;-83
2023/02/23 06:56:20;;;;;;;64.90;21.63;;;8.30;99.90;;;;;;4881008;29;20497;-83
2023/02/23 06:58:46;;;;;;;75.18;21.58;;;8.30;99.90;;;;;;4881828;29;20033;-83
2023/02/23 07:01:13;;;;;;;65.72;21.50;;;8.30;99.90;;;;;;4880624;29;20048;-84
2023/02/23 07:03:39;;;;;;;65.47;22.65;;;8.30;99.90;;;;;;4879414;29;20048;-83
2023/02/23 07:06:05;;;;;;;69.72;22.67;;;8.30;99.90;;;;;;4880820;29;20029;-83
2023/02/23 07:08:32;;;;;;;68.55;21.85;;;8.40;99.90;;;;;;4876331;29;20040;-81
2023/02/23 07:11:09;;;;;;;60.97;21.98;;;8.40;99.90;;;;;;4881969;29;20526;-81
2023/02/23 07:13:35;;;;;;;71.15;22.48;;;8.40;99.90;;;;;;4860599;29;20072;-82
2023/02/23 07:16:01;;;;;;;63.03;21.83;;;8.40;99.90;;;;;;4878400;29;20454;-87
2023/02/23 07:18:27;;;;;;;72.88;23.42;;;8.30;99.90;;;;;;4877273;29;20045;-89
2023/02/23 07:20:53;;;;;;;68.32;22.73;;;8.30;99.90;;;;;;4881438;29;20520;-83
2023/02/23 07:23:19;;;;;;;61.78;21.65;;;8.30;99.90;;;;;;4880745;29;20097;-80
2023/02/23 07:25:44;;;;;;;62.15;22.70;;;8.40;99.90;;;;;;4881993;29;20085;-83
2023/02/23 07:28:13;;;;;;;64.82;23.13;;;8.50;99.90;;;;;;4882017;29;20213;-85
2023/02/23 07:30:39;;;;;;;65.45;20.88;;;8.40;99.90;;;;;;4880408;29;20044;-84
2023/02/23 07:33:05;;;;;;;68.57;21.45;;;8.40;99.90;;;;;;4882272;29;20041;-83
2023/02/23 07:35:30;;;;;;;70.13;22.05;;;8.50;99.90;;;;;;4882178;29;20077;-83
2023/02/23 07:37:56;;;;;;;73.25;21.92;;;8.40;99.90;;;;;;4877968;29;20041;-79
2023/02/23 07:40:22;;;;;;;86.18;22.85;;;8.40;99.90;;;;;;4882124;29;20041;-88
2023/02/23 07:42:48;;;;;;;65.63;21.00;;;8.40;99.90;;;;;;4879858;29;20029;-78
2023/02/23 07:45:14;;;;;;;75.65;21.65;;;8.50;99.90;;;;;;4878661;29;20060;-79
2023/02/23 07:47:39;;;;;;;77.85;22.45;;;8.50;99.90;;;;;;4876764;29;20474;-84
2023/02/23 07:50:09;;;;;;;67.28;22.17;;;8.50;99.90;;;;;;4874714;29;20033;-82
2023/02/23 07:52:41;;;;;;;71.18;21.80;;;8.50;99.90;;;;;;4864009;29;20387;-82
2023/02/23 07:55:08;;;;;;;70.72;22.63;;;8.50;99.90;;;;;;4875952;29;20048;-83
2023/02/23 07:57:34;;;;;;;76.87;21.03;;;8.50;99.90;;;;;;4880313;29;20040;-83
2023/02/23 08:00:00;;;;;;;71.13;20.83;;;8.50;99.90;;;;;;4872631;29;20474;-82
2023/02/23 08:02:31;;;;;;;75.60;21.08;;;8.50;99.90;;;;;;4880223;29;20021;-83
2023/02/23 08:04:57;;;;;;;64.30;21.83;;;8.50;99.90;;;;;;4880069;29;20025;-80
2023/02/23 08:07:24;;;;;;;65.13;21.35;;;8.60;99.90;;;;;;4874950;29;20461;-82
2023/02/23 08:09:51;;;;;;;81.82;22.27;;;8.70;99.90;;;;;;4866393;29;20566;-81
2023/02/23 08:12:17;;;;;;;60.88;19.67;;;8.70;99.90;;;;;;4880543;29;20036;-82
2023/02/23 08:14:42;;;;;;;64.15;20.92;;;8.80;99.90;;;;;;4879826;29;20041;-83
2023/02/23 08:17:09;;;;;;;59.85;20.48;;;8.80;99.90;;;;;;4878562;29;20040;-82
2023/02/23 08:19:35;;;;;;;66.28;19.77;;;8.80;99.90;;;;;;4880235;29;20120;-81
2023/02/23 08:22:02;;;;;;;64.15;21.00;;;8.90;99.90;;;;;;4878934;29;20041;-82
2023/02/23 08:24:29;;;;;;;66.97;20.05;;;8.80;99.90;;;;;;4879523;29;20393;-82
2023/02/23 08:26:55;;;;;;;67.40;20.55;;;8.80;99.90;;;;;;4878864;29;20036;-82
2023/02/23 08:29:21;;;;;;;63.55;21.92;;;8.80;99.90;;;;;;4875340;29;20142;-82
2023/02/23 08:31:50;;;;;;;60.75;19.80;;;8.80;99.90;;;;;;4859948;29;20523;-83
2023/02/23 08:34:19;;;;;;;71.38;19.75;;;8.70;99.90;;;;;;4859600;29;20502;-82
2023/02/23 08:36:45;;;;;;;61.28;20.00;;;8.80;99.90;;;;;;4874929;29;20048;-82
2023/02/23 08:39:12;;;;;;;57.70;18.65;;;8.70;99.90;;;;;;4873034;29;20045;-82
2023/02/23 08:41:38;;;;;;;60.08;20.70;;;8.90;99.90;;;;;;4875366;29;20037;-82
2023/02/23 08:44:04;;;;;;;62.88;19.55;;;8.90;99.90;;;;;;4878075;29;20605;-83
2023/02/23 08:46:30;;;;;;;60.28;19.00;;;8.90;99.90;;;;;;4870980;29;20034;-81
2023/02/23 08:48:56;;;;;;;47.20;17.83;;;9.00;99.90;;;;;;4859661;29;20042;-82
2023/02/23 08:51:21;;;;;;;72.72;19.98;;;9.10;99.90;;;;;;4869998;29;20467;-81
2023/02/23 08:53:47;;;;;;;64.38;20.38;;;9.10;99.90;;;;;;4873949;29;20041;-81
2023/02/23 08:56:14;;;;;;;76.53;20.27;;;9.10;99.90;;;;;;4877562;29;20111;-81
2023/02/23 08:58:40;;;;;;;53.17;17.85;;;9.00;99.90;;;;;;4877292;29;20045;-82
2023/02/23 09:01:05;;;;;;;50.33;17.70;;;9.00;99.90;;;;;;4871758;29;20080;-81
2023/02/23 09:03:34;;;;;;;53.53;18.55;;;9.00;99.90;;;;;;4879325;29;20040;-81
2023/02/23 09:06:10;;;;;;;54.85;19.27;;;9.10;99.90;;;;;;4877761;29;20407;-82
2023/02/23 09:08:37;;;;;;;57.22;18.70;;;9.10;99.90;;;;;;4877685;29;20112;-84
2023/02/23 09:11:03;;;;;;;57.10;18.25;;;9.10;99.90;;;;;;4879793;29;20033;-81
2023/02/23 09:13:29;;;;;;;55.20;17.27;;;9.20;99.90;;;;;;4876703;29;20040;-81
2023/02/23 09:15:55;;;;;;;52.30;17.35;;;9.20;99.90;;;;;;4878585;29;20178;-81
2023/02/23 09:18:22;;;;;;;50.85;17.30;;;9.10;99.90;;;;;;4879620;29;20086;-82
2023/02/23 09:20:50;;;;;;;45.65;14.77;;;9.20;99.90;;;;;;4875944;29;20135;-82
2023/02/23 09:23:17;;;;;;;51.17;17.07;;;9.20;99.90;;;;;;4879632;29;20553;-82
2023/02/23 09:25:44;;;;;;;59.45;18.40;;;9.10;99.90;;;;;;4879543;29;20040;-83
2023/02/23 09:28:19;;;;;;;53.45;14.57;;;9.20;99.90;;;;;;4879398;29;20089;-81
2023/02/23 09:30:46;;;;;;;43.88;15.18;;;9.10;99.90;;;;;;4880404;29;20338;-82
2023/02/23 09:33:12;;;;;;;34.78;13.52;;;9.10;99.90;;;;;;4879546;29;20033;-82
2023/02/23 09:35:39;;;;;;;49.80;15.30;;;9.10;99.90;;;;;;4877877;29;20048;-82
2023/02/23 09:38:06;;;;;;;44.63;15.17;;;9.10;99.90;;;;;;4875823;29;20037;-83
2023/02/23 09:40:52;;;;;;;39.97;15.05;;;9.10;99.90;;;;;;4879255;29;20042;-82
2023/02/23 09:43:46;;;;;;;47.45;15.40;;;9.00;99.90;;;;;;4878682;29;20100;-81
2023/02/23 09:46:38;;;;;;;45.67;13.38;;;9.10;99.90;;;;;;4881502;29;20055;-82
2023/02/23 09:49:11;;;;;;;38.42;12.98;;;9.10;99.90;;;;;;4873127;29;20041;-81
2023/02/23 09:51:42;;;;;;;40.42;13.15;;;9.20;99.90;;;;;;4878007;29;20172;-82
2023/02/23 09:54:11;;;;;;;30.15;12.02;;;9.30;99.90;;;;;;4879452;29;20079;-82
2023/02/23 09:56:42;;;;;;;37.20;12.90;;;9.30;99.90;;;;;;4879103;29;20089;-83
2023/02/23 09:59:16;;;;;;;39.83;14.38;;;9.30;99.90;;;;;;4876754;29;20045;-82
2023/02/23 10:01:48;;;;;;;35.10;13.07;;;9.20;99.90;;;;;;4879400;29;20112;-82
2023/02/23 10:04:21;;;;;;;40.30;13.55;;;9.30;99.90;;;;;;4871512;29;20036;-83
2023/02/23 10:07:03;;;;;;;47.30;15.20;;;9.30;99.90;;;;;;4877582;29;20060;-83
2023/02/23 10:10:14;;;;;;;36.03;13.02;;;9.20;99.90;;;;;;4882220;29;20037;-82
2023/02/23 10:12:48;;;;;;;38.80;13.07;;;9.30;99.90;;;;;;4842607;29;20086;-82
2023/02/23 10:15:54;;;;;;;48.33;13.45;;;9.40;99.90;;;;;;4877996;29;20044;-82
2023/02/23 10:18:50;;;;;;;35.53;12.25;;;9.30;99.90;;;;;;4878186;29;20029;-82
2023/02/23 10:21:30;;;;;;;36.35;13.10;;;9.50;99.90;;;;;;4879030;29;20052;-80
2023/02/23 10:24:21;;;;;;;32.33;11.52;;;9.40;99.90;;;;;;4877841;29;20037;-82
2023/02/23 10:26:53;;;;;;;30.17;10.43;;;9.40;99.90;;;;;;4880194;29;20113;-82
2023/02/23 10:29:30;;;;;;;31.60;11.63;;;9.50;99.90;;;;;;4881226;29;20427;-82
2023/02/23 10:32:06;;;;;;;33.85;11.77;;;9.60;99.90;;;;;;4881678;29;20573;-81
2023/02/23 10:34:32;;;;;;;33.70;11.35;;;9.70;99.90;;;;;;4879854;29;20085;-80
2023/02/23 10:37:01;;;;;;;33.03;12.30;;;9.80;99.90;;;;;;4879843;29;20569;-81
2023/02/23 10:39:28;;;;;;;37.88;11.95;;;9.60;99.90;;;;;;4881442;29;20032;-81
2023/02/23 10:41:57;;;;;;;30.77;11.05;;;9.70;99.90;;;;;;4882026;29;20049;-81
2023/02/23 10:44:25;;;;;;;32.67;12.95;;;9.70;99.90;;;;;;4876998;29;20394;-81
2023/02/23 10:46:57;;;;;;;30.23;10.35;;;9.80;99.90;;;;;;4881535;29;20037;-85
2023/02/23 10:49:31;;;;;;;26.45;10.85;;;9.70;99.90;;;;;;4881491;29;20069;-84
2023/02/23 10:52:01;;;;;;;25.73;11.00;;;9.70;99.90;;;;;;4882958;29;20135;-83
2023/02/23 10:54:33;;;;;;;26.70;10.25;;;9.70;99.90;;;;;;4876071;29;20033;-82
2023/02/23 10:56:59;;;;;;;26.83;10.90;;;9.80;99.90;;;;;;4879414;29;20029;-83
2023/02/23 10:59:25;;;;;;;20.95;8.30;;;9.80;99.90;;;;;;4882219;29;20033;-81
2023/02/23 11:01:52;;;;;;;26.00;10.38;;;9.90;99.90;;;;;;4880584;29;20044;-82
2023/02/23 11:04:29;;;;;;;24.40;9.38;;;10.00;99.90;;;;;;4880902;29;20025;-85
2023/02/23 11:07:16;;;;;;;28.25;9.32;;;10.00;99.90;;;;;;4872455;29;20037;-83
2023/02/23 11:09:42;;;;;;;18.05;8.75;;;10.00;99.90;;;;;;4878905;29;20037;-81
2023/02/23 11:12:40;;;;;;;17.42;8.13;;;9.90;99.90;;;;;;4880428;29;20029;-82
2023/02/23 11:15:25;;;;;;;17.48;7.22;;;10.00;99.90;;;;;;4897334;29;20024;-84
2023/02/23 11:17:59;;;;;;;16.17;7.63;;;9.90;99.90;;;;;;4883401;29;20037;-83
2023/02/23 11:20:34;;;;;;;16.20;7.28;;;9.80;99.90;;;;;;4870630;29;20037;-81
2023/02/23 11:23:10;;;;;;;16.52;7.30;;;9.80;99.90;;;;;;4876614;29;20532;-83
2023/02/23 11:25:37;;;;;;;21.75;8.30;;;9.60;99.90;;;;;;4877347;29;20037;-81
2023/02/23 11:28:03;;;;;;;16.95;7.57;;;9.50;99.90;;;;;;4899215;29;20055;-81
2023/02/23 11:30:36;;;;;;;17.90;7.40;;;9.30;99.90;;;;;;4899735;29;20041;-83
2023/02/23 11:33:10;;;;;;;18.75;7.65;;;9.20;99.90;;;;;;4883841;29;20073;-83
2023/02/23 11:35:37;;;;;;;21.58;8.05;;;9.20;99.90;;;;;;4882170;29;20073;-83
2023/02/23 11:38:24;;;;;;;18.20;7.53;;;9.10;99.90;;;;;;4880804;29;20037;-82
2023/02/23 11:41:22;;;;;;;14.50;7.60;;;9.10;99.90;;;;;;4878906;29;20077;-82
2023/02/23 11:43:56;;;;;;;17.92;7.10;;;9.00;99.90;;;;;;4860561;29;20105;-84
2023/02/23 11:46:22;;;;;;;20.77;7.80;;;9.10;99.90;;;;;;4876778;29;20170;-82
2023/02/23 11:48:55;;;;;;;21.05;8.02;;;9.00;99.90;;;;;;4869036;29;20041;-84
2023/02/23 11:51:30;;;;;;;21.25;8.13;;;9.00;99.90;;;;;;4861251;29;20463;-82
2023/02/23 11:53:56;;;;;;;26.67;7.95;;;9.10;99.90;;;;;;4861157;29;20081;-83
2023/02/23 11:56:25;;;;;;;25.50;8.02;;;9.10;99.90;;;;;;4861267;29;20072;-83
2023/02/23 11:58:55;;;;;;;30.80;8.80;;;9.20;99.90;;;;;;4861741;29;20129;-84
2023/02/23 12:01:33;;;;;;;25.20;8.45;;;9.30;99.90;;;;;;4880296;29;20080;-81
2023/02/23 12:03:59;;;;;;;21.27;8.77;;;9.40;99.90;;;;;;4863882;29;20034;-81
2023/02/23 12:06:31;;;;;;;19.90;7.90;;;9.50;99.90;;;;;;4868643;29;20040;-80
2023/02/23 12:09:30;;;;;;;21.83;8.70;;;9.50;99.90;;;;;;4879224;29;20441;-81
2023/02/23 12:12:15;;;;;;;25.40;8.60;;;9.60;99.90;;;;;;4822729;29;20076;-81
2023/02/23 12:14:45;;;;;;;23.52;9.65;;;9.60;99.90;;;;;;4880418;29;20389;-81
2023/02/23 12:17:22;;;;;;;21.52;9.18;;;9.50;99.90;;;;;;4878787;29;20025;-80
2023/02/23 12:20:20;;;;;;;25.40;10.20;;;9.60;99.90;;;;;;4880047;29;20127;-81
2023/02/23 12:22:53;;;;;;;23.90;8.55;;;9.70;99.90;;;;;;4881436;29;20064;-82
2023/02/23 12:25:39;;;;;;;18.85;6.65;;;9.80;99.90;;;;;;4879341;29;20379;-80
2023/02/23 12:28:33;;;;;;;19.10;7.35;;;9.70;99.90;;;;;;4880107;29;20080;-81
2023/02/23 12:31:05;;;;;;;17.42;5.55;;;9.80;99.90;;;;;;4880545;29;20037;-84
2023/02/23 12:33:57;;;;;;;14.00;6.25;;;9.70;99.90;;;;;;4865018;29;20042;-80
2023/02/23 12:36:45;;;;;;;11.95;5.70;;;9.70;99.90;;;;;;4859191;29;20052;-79
2023/02/23 12:39:38;;;;;;;16.75;5.78;;;9.60;99.90;;;;;;4881780;29;20068;-81
2023/02/23 12:42:29;;;;;;;12.10;4.80;;;9.60;99.90;;;;;;4877677;29;20511;-80
2023/02/23 12:45:00;;;;;;;12.25;5.32;;;9.60;99.90;;;;;;4891134;29;20032;-83
2023/02/23 12:48:27;;;;;;;13.32;5.25;;;9.70;99.90;;;;;;4890403;29;20049;-80
2023/02/23 12:50:55;;;;;;;17.60;5.65;;;9.90;99.90;;;;;;4830665;29;20038;-81
2023/02/23 12:53:41;;;;;;;11.75;5.60;;;9.90;99.90;;;;;;4835406;29;20046;-81
2023/02/23 12:56:28;;;;;;;16.67;5.43;;;9.90;99.90;;;;;;4879778;29;20052;-78
2023/02/23 12:59:33;;;;;;;17.83;5.33;;;9.90;99.90;;;;;;4896865;29;20038;-77
2023/02/23 13:02:02;;;;;;;20.60;5.32;;;10.00;99.90;;;;;;4900432;29;20049;-79
2023/02/23 13:05:05;;;;;;;15.95;5.97;;;10.10;99.90;;;;;;4897288;29;20029;-77
2023/02/23 13:07:52;;;;;;;13.50;6.57;;;10.20;99.90;;;;;;4901937;29;20045;-76
2023/02/23 13:10:42;;;;;;;19.73;7.28;;;10.40;99.90;;;;;;4898695;29;20025;-79
2023/02/23 13:13:26;;;;;;;18.13;6.75;;;10.50;99.90;;;;;;4903275;29;20013;-81
2023/02/23 13:16:22;;;;;;;17.85;6.32;;;10.60;99.90;;;;;;4903007;29;20058;-80
2023/02/23 13:19:19;;;;;;;15.93;6.03;;;10.60;99.90;;;;;;4901892;29;20021;-80
2023/02/23 13:21:53;;;;;;;14.35;5.95;;;10.60;99.90;;;;;;4892699;29;20144;-79
2023/02/23 13:24:32;;;;;;;17.10;5.53;;;10.70;99.90;;;;;;4876587;29;20118;-79
2023/02/23 13:27:22;;;;;;;13.30;6.43;;;10.60;99.90;;;;;;4899979;29;20037;-81
2023/02/23 13:29:54;;;;;;;12.93;5.47;;;10.60;99.90;;;;;;4902595;29;20021;-81
2023/02/23 13:32:40;;;;;;;10.93;5.15;;;10.50;99.90;;;;;;4903665;29;20037;-82
2023/02/23 13:35:13;;;;;;;8.38;4.88;;;10.40;99.90;;;;;;4903100;29;20017;-80
2023/02/23 13:37:42;;;;;;;15.57;5.70;;;10.40;99.90;;;;;;4903762;29;20062;-81
2023/02/23 13:40:10;;;;;;;14.57;6.55;;;10.20;99.90;;;;;;4901111;29;20383;-81
2023/02/23 13:43:08;;;;;;;14.52;5.65;;;10.10;99.90;;;;;;4901687;29;20037;-82
2023/02/23 13:45:43;;;;;;;14.55;6.00;;;10.00;99.90;;;;;;4895154;29;20088;-78
2023/02/23 13:49:06;;;;;;;14.38;5.93;;;10.10;99.90;;;;;;4903542;29;20051;-78
2023/02/23 13:51:53;;;;;;;16.67;5.53;;;10.20;99.90;;;;;;4838906;29;20023;-78
2023/02/23 13:54:29;;;;;;;15.00;5.82;;;10.30;99.90;;;;;;4829703;29;20035;-77
2023/02/23 13:56:58;;;;;;;11.63;5.18;;;10.30;99.90;;;;;;4893700;29;20077;-77
2023/02/23 13:59:32;;;;;;;13.93;6.22;;;10.20;99.90;;;;;;4903531;29;20041;-77
2023/02/23 14:02:01;;;;;;;20.63;6.30;;;10.20;99.90;;;;;;4903153;29;20060;-77
2023/02/23 14:04:33;;;;;;;13.32;6.00;;;10.20;99.90;;;;;;4901719;29;20026;-78
2023/02/23 14:07:08;;;;;;;19.27;6.15;;;10.10;99.90;;;;;;4888510;29;20126;-79
2023/02/23 14:09:43;;;;;;;15.60;6.07;;;10.10;99.90;;;;;;4895346;29;20036;-78
2023/02/23 14:12:36;;;;;;;18.38;7.03;;;10.10;99.90;;;;;;4889573;29;20032;-81
2023/02/23 14:15:52;;;;;;;23.65;6.85;;;10.10;99.90;;;;;;4881083;29;20113;-81
2023/02/23 14:18:17;;;;;;;13.15;5.75;;;10.10;99.90;;;;;;4862854;29;20056;-81
2023/02/23 14:21:12;;;;;;;16.05;7.50;;;10.00;99.90;;;;;;4870409;29;20112;-81
2023/02/23 14:23:41;;;;;;;19.23;7.05;;;9.90;99.90;;;;;;4867382;29;20069;-81